createdAt,value
2023-03-01T00:01:16.684Z,1.48
2023-03-01T00:03:43.781Z,1.01
2023-03-01T00:06:11.006Z,1.34
2023-03-01T00:08:37.948Z,3.15
2023-03-01T00:11:05.607Z,4.11
2023-03-01T00:13:33.112Z,3.16
2023-03-01T00:15:59.751Z,2.19
2023-03-01T00:18:26.301Z,1.52
2023-03-01T00:20:54.441Z,1.05
2023-03-01T00:23:22.289Z,1.17
2023-03-01T00:25:49.519Z,2.91
2023-03-01T00:28:16.465Z,4.00
2023-03-01T00:30:43.488Z,3.14
2023-03-01T00:33:10.212Z,2.19
2023-03-01T00:35:37.018Z,1.49
2023-03-01T00:38:04.359Z,1.00
2023-03-01T00:40:34.879Z,0.58
2023-03-01T00:43:02.313Z,0.88
2023-03-01T00:45:31.332Z,2.71
2023-03-01T00:47:57.871Z,3.67
2023-03-01T00:50:24.658Z,2.71
2023-03-01T00:52:55.880Z,1.79
2023-03-01T00:55:23.552Z,1.14
2023-03-01T00:57:50.145Z,0.65
2023-03-01T01:00:18.025Z,0.78
2023-03-01T01:02:45.680Z,2.49
2023-03-01T01:05:13.064Z,3.65
2023-03-01T01:07:39.724Z,2.81
2023-03-01T01:10:09.087Z,1.84
2023-03-01T01:12:35.748Z,1.16
2023-03-01T01:15:02.460Z,0.67
2023-03-01T01:17:29.060Z,0.82
2023-03-01T01:19:55.769Z,2.58
2023-03-01T01:22:22.380Z,3.63
2023-03-01T01:24:48.936Z,2.73
2023-03-01T01:27:15.588Z,1.77
2023-03-01T01:29:42.478Z,1.11
2023-03-01T01:32:09.088Z,0.62
2023-03-01T01:34:35.713Z,0.71
2023-03-01T01:37:03.176Z,2.42
2023-03-01T01:39:29.806Z,3.38
2023-03-01T01:41:56.533Z,2.47
2023-03-01T01:44:27.464Z,1.55
2023-03-01T01:46:55.106Z,0.89
2023-03-01T01:49:25.818Z,0.41
2023-03-01T01:52:08.293Z,0.24
2023-03-01T01:54:51.045Z,1.89
2023-03-01T01:57:23.056Z,3.09
2023-03-01T01:59:54.825Z,2.17
2023-03-01T02:02:21.725Z,1.26
2023-03-01T02:04:50.567Z,0.64
2023-03-01T02:07:22.346Z,0.19
2023-03-01T02:09:51.340Z,0.85
2023-03-01T02:12:22.613Z,2.74
2023-03-01T02:14:49.331Z,3.31
2023-03-01T02:17:18.002Z,2.22
2023-03-01T02:20:10.751Z,1.30
2023-03-01T02:22:38.837Z,0.59
2023-03-01T02:25:18.654Z,0.15
2023-03-01T02:28:06.211Z,0.93
2023-03-01T02:30:33.995Z,2.87
2023-03-01T02:33:03.752Z,2.61
2023-03-01T02:43:17.444Z,-0.21
2023-03-01T02:45:53.869Z,0.05
2023-03-01T02:48:21.921Z,1.97
2023-03-01T02:51:12.569Z,2.78
2023-03-01T02:53:54.725Z,1.62
2023-03-01T02:56:22.880Z,0.69
2023-03-01T02:58:52.753Z,0.11
2023-03-01T03:01:21.993Z,-0.31
2023-03-01T03:03:50.027Z,0.44
2023-03-01T03:06:18.310Z,2.30
2023-03-01T03:08:46.576Z,2.98
2023-03-01T03:11:14.664Z,1.92
2023-03-01T03:13:49.266Z,0.98
2023-03-01T03:16:17.482Z,0.32
2023-03-01T03:18:45.436Z,-0.15
2023-03-01T03:21:14.543Z,0.07
2023-03-01T03:23:42.724Z,1.89
2023-03-01T03:26:16.234Z,2.92
2023-03-01T03:28:44.382Z,1.95
2023-03-01T03:31:12.456Z,1.00
2023-03-01T03:33:40.443Z,0.35
2023-03-01T03:36:14.003Z,-0.13
2023-03-01T03:38:41.904Z,0.37
2023-03-01T03:41:09.808Z,2.23
2023-03-01T03:43:39.537Z,2.86
2023-03-01T03:46:08.544Z,1.81
2023-03-01T03:48:43.368Z,0.91
2023-03-01T03:51:17.234Z,0.25
2023-03-01T03:53:46.590Z,-0.24
2023-03-01T03:56:14.656Z,-0.19
2023-03-01T03:58:44.852Z,1.51
2023-03-01T04:01:12.937Z,2.61
2023-03-01T04:03:42.730Z,1.74
2023-03-01T04:06:10.727Z,0.80
2023-03-01T04:08:41.230Z,0.14
2023-03-01T04:11:28.671Z,-0.33
2023-03-01T04:14:00.004Z,-0.67
2023-03-01T04:16:28.581Z,0.58
2023-03-01T04:18:57.653Z,2.24
2023-03-01T04:21:25.844Z,1.87
2023-03-01T04:23:53.936Z,0.87
2023-03-01T04:26:22.167Z,0.15
2023-03-01T04:28:51.544Z,-0.35
2023-03-01T04:31:22.424Z,-0.49
2023-03-01T04:33:53.834Z,1.09
2023-03-01T04:36:25.863Z,2.38
2023-03-01T04:38:54.768Z,1.56
2023-03-01T04:41:25.761Z,0.63
2023-03-01T04:43:53.832Z,-0.02
2023-03-01T04:46:23.014Z,-0.48
2023-03-01T04:48:51.309Z,0.07
2023-03-01T04:51:19.552Z,1.96
2023-03-01T04:53:47.852Z,2.78
2023-03-01T04:56:16.439Z,1.77
2023-03-01T04:58:45.014Z,0.80
2023-03-01T05:01:19.891Z,0.16
2023-03-01T05:03:52.921Z,-0.35
2023-03-01T05:06:22.082Z,-0.16
2023-03-01T05:08:50.169Z,1.65
2023-03-01T05:11:18.142Z,2.75
2023-03-01T05:13:46.094Z,1.84
2023-03-01T05:16:14.287Z,0.87
2023-03-01T05:18:42.608Z,0.21
2023-03-01T05:21:14.141Z,-0.28
2023-03-01T05:23:42.353Z,-0.25
2023-03-01T05:26:25.760Z,1.52
2023-03-01T05:29:00.236Z,2.61
2023-03-01T05:31:28.833Z,1.59
2023-03-01T05:33:56.836Z,0.69
2023-03-01T05:36:24.895Z,0.06
2023-03-01T05:38:52.767Z,-0.40
2023-03-01T05:41:20.766Z,-0.18
2023-03-01T05:43:48.913Z,1.62
2023-03-01T05:46:16.864Z,2.73
2023-03-01T05:48:44.873Z,1.85
2023-03-01T05:51:13.225Z,0.89
2023-03-01T05:53:41.161Z,0.20
2023-03-01T05:56:09.218Z,-0.29
2023-03-01T05:58:39.694Z,-0.66
2023-03-01T06:01:13.825Z,-0.44
2023-03-01T06:03:42.352Z,1.48
2023-03-01T06:06:10.333Z,2.56
2023-03-01T06:08:38.274Z,1.66
2023-03-01T06:11:06.469Z,0.73
2023-03-01T06:13:34.478Z,0.10
2023-03-01T06:16:05.198Z,-0.35
2023-03-01T06:18:33.407Z,-0.15
2023-03-01T06:21:01.667Z,1.64
2023-03-01T06:23:29.674Z,2.77
2023-03-01T06:25:57.654Z,1.90
2023-03-01T06:28:25.812Z,0.98
2023-03-01T06:30:53.951Z,0.34
2023-03-01T06:33:24.548Z,-0.12
2023-03-01T06:35:55.864Z,-0.48
2023-03-01T06:38:25.461Z,0.09
2023-03-01T06:40:58.007Z,2.02
2023-03-01T06:43:25.995Z,2.82
2023-03-01T06:45:54.104Z,1.82
2023-03-01T06:48:22.183Z,0.96
2023-03-01T06:50:50.265Z,0.37
2023-03-01T06:53:18.283Z,-0.05
2023-03-01T06:55:46.289Z,0.49
2023-03-01T06:58:14.281Z,2.40
2023-03-01T07:00:44.088Z,3.40
2023-03-01T07:03:12.139Z,2.47
2023-03-01T07:05:40.305Z,1.54
2023-03-01T07:08:08.597Z,0.92
2023-03-01T07:10:36.639Z,0.98
2023-03-01T07:13:04.728Z,2.72
2023-03-01T07:15:33.938Z,4.16
2023-03-01T07:18:02.075Z,3.59
2023-03-01T07:20:30.237Z,2.56
2023-03-01T07:22:59.666Z,1.84
2023-03-01T07:25:27.818Z,1.93
2023-03-01T07:27:55.862Z,3.69
2023-03-01T07:30:26.851Z,5.11
2023-03-01T07:32:59.049Z,4.52
2023-03-01T07:35:28.380Z,3.45
2023-03-01T07:37:56.457Z,2.72
2023-03-01T07:40:24.488Z,2.70
2023-03-01T07:42:57.569Z,4.49
2023-03-01T07:45:26.742Z,5.55
2023-03-01T07:47:56.784Z,4.61
2023-03-01T07:50:24.727Z,3.70
2023-03-01T07:52:52.833Z,3.11
2023-03-01T07:58:25.483Z,3.36
2023-03-01T08:00:53.484Z,5.27
2023-03-01T08:03:21.621Z,5.97
2023-03-01T08:05:49.582Z,4.99
2023-03-01T08:08:18.055Z,4.15
2023-03-01T08:10:46.752Z,3.60
2023-03-01T08:13:14.742Z,3.21
2023-03-01T08:15:42.874Z,2.93
2023-03-01T08:18:10.775Z,3.08
2023-03-01T08:20:38.708Z,4.86
2023-03-01T08:23:06.658Z,6.12
2023-03-01T08:25:35.113Z,5.43
2023-03-01T08:28:03.215Z,4.64
2023-03-01T08:30:31.387Z,4.12
2023-03-01T08:32:59.515Z,3.81
2023-03-01T08:35:27.653Z,3.63
2023-03-01T08:37:55.784Z,4.66
2023-03-01T08:40:23.853Z,6.60
2023-03-01T08:42:52.051Z,6.80
2023-03-01T08:45:20.325Z,5.95
2023-03-01T08:47:48.396Z,5.35
2023-03-01T08:50:16.859Z,4.98
2023-03-01T08:52:44.938Z,4.76
2023-03-01T08:55:12.940Z,4.62
2023-03-01T08:57:40.871Z,4.54
2023-03-01T09:00:10.435Z,4.51
2023-03-01T09:02:39.857Z,4.95
2023-03-01T09:05:08.461Z,6.96
2023-03-01T09:07:36.380Z,8.25
2023-03-01T09:10:04.956Z,7.77
2023-03-01T09:12:32.965Z,7.40
2023-03-01T09:15:00.912Z,7.34
2023-03-01T09:17:28.897Z,7.49
2023-03-01T09:19:56.896Z,7.77
2023-03-01T09:22:24.844Z,8.12
2023-03-01T09:24:52.831Z,8.51
2023-03-01T09:27:20.907Z,8.91
2023-03-01T09:29:48.882Z,9.32
2023-03-01T09:32:16.933Z,9.69
2023-03-01T09:35:05.880Z,10.05
2023-03-01T09:37:35.803Z,10.42
2023-03-01T09:40:06.363Z,10.73
2023-03-01T09:42:36.863Z,11.03
2023-03-01T09:45:07.228Z,11.31
2023-03-01T09:47:36.913Z,11.58
2023-03-01T09:50:11.955Z,11.86
2023-03-01T09:52:47.804Z,12.14
2023-03-01T09:55:23.589Z,12.45
2023-03-01T09:58:17.007Z,12.75
2023-03-01T10:00:49.271Z,13.10
2023-03-01T10:03:53.078Z,13.40
2023-03-01T10:06:34.459Z,13.76
2023-03-01T10:09:17.528Z,14.03
2023-03-01T10:11:54.488Z,14.29
2023-03-01T10:14:34.550Z,14.52
2023-03-01T10:17:18.872Z,14.74
2023-03-01T10:19:48.609Z,14.98
2023-03-01T10:22:18.428Z,15.17
2023-03-01T10:24:47.717Z,15.37
2023-03-01T10:27:25.167Z,15.53
2023-03-01T10:30:21.925Z,15.68
2023-03-01T10:32:52.684Z,15.84
2023-03-01T10:35:25.328Z,15.96
2023-03-01T10:38:11.243Z,16.06
2023-03-01T10:41:08.931Z,16.21
2023-03-01T10:43:52.857Z,16.36
2023-03-01T10:46:40.109Z,16.45
2023-03-01T10:49:26.704Z,16.47
2023-03-01T10:51:55.405Z,16.44
2023-03-01T10:54:25.026Z,16.40
2023-03-01T10:56:57.158Z,16.41
2023-03-01T10:59:37.464Z,16.43
2023-03-01T11:02:31.713Z,16.50
2023-03-01T11:06:31.346Z,16.65
2023-03-01T11:09:15.113Z,16.72
2023-03-01T11:11:43.095Z,16.75
2023-03-01T11:14:30.773Z,16.72
2023-03-01T11:17:13.420Z,16.71
2023-03-01T11:19:43.681Z,16.70
2023-03-01T11:22:23.211Z,16.68
2023-03-01T11:25:07.426Z,16.69
2023-03-01T11:27:46.759Z,16.72
2023-03-01T11:30:44.788Z,16.76
2023-03-01T11:33:41.029Z,16.78
2023-03-01T11:36:36.548Z,16.79
2023-03-01T11:39:38.765Z,16.82
2023-03-01T11:42:22.660Z,16.81
2023-03-01T11:44:56.655Z,16.79
2023-03-01T11:47:52.144Z,16.77
2023-03-01T11:50:49.451Z,16.72
2023-03-01T11:53:27.955Z,16.71
2023-03-01T11:56:15.471Z,16.75
2023-03-01T11:59:04.606Z,16.92
2023-03-01T12:01:53.869Z,17.16
2023-03-01T12:04:58.842Z,17.32
2023-03-01T12:08:13.060Z,17.37
2023-03-01T12:11:12.245Z,17.27
2023-03-01T12:14:05.388Z,17.09
2023-03-01T12:16:52.236Z,16.88
2023-03-01T12:19:55.891Z,16.69
2023-03-01T12:22:45.428Z,16.45
2023-03-01T12:25:30.716Z,16.24
2023-03-01T12:28:18.890Z,16.06
2023-03-01T12:31:06.295Z,15.90
2023-03-01T12:33:50.809Z,15.76
2023-03-01T12:36:37.365Z,15.65
2023-03-01T12:39:25.517Z,15.55
2023-03-01T12:42:15.096Z,15.40
2023-03-01T12:45:14.983Z,15.26
2023-03-01T12:47:51.910Z,15.10
2023-03-01T12:50:26.725Z,14.96
2023-03-01T12:52:58.762Z,14.84
2023-03-01T12:55:39.102Z,14.72
2023-03-01T12:58:48.669Z,14.62
2023-03-01T13:01:52.198Z,14.50
2023-03-01T13:05:19.356Z,14.36
2023-03-01T13:08:00.061Z,14.21
2023-03-01T13:10:37.730Z,14.10
2023-03-01T13:13:27.657Z,14.00
2023-03-01T13:15:57.076Z,13.90
2023-03-01T13:18:26.574Z,13.83
2023-03-01T13:21:03.790Z,13.74
2023-03-01T13:23:40.792Z,13.63
2023-03-01T13:26:15.926Z,13.50
2023-03-01T13:28:50.655Z,13.38
2023-03-01T13:31:23.825Z,13.27
2023-03-01T13:33:52.848Z,13.17
2023-03-01T13:36:30.494Z,13.08
2023-03-01T13:39:03.432Z,12.96
2023-03-01T13:41:40.690Z,12.84
2023-03-01T13:44:27.957Z,12.73
2023-03-01T13:47:08.217Z,12.59
2023-03-01T13:50:00.954Z,12.46
2023-03-01T13:52:58.813Z,12.32
2023-03-01T13:55:46.523Z,12.15
2023-03-01T13:58:29.761Z,11.97
2023-03-01T14:01:07.432Z,11.77
2023-03-01T14:03:42.852Z,11.57
2023-03-01T14:06:21.151Z,11.40
2023-03-01T14:08:54.099Z,11.23
2023-03-01T14:11:37.554Z,11.07
2023-03-01T14:14:08.525Z,10.93
2023-03-01T14:17:10.755Z,10.77
2023-03-01T14:19:38.783Z,10.59
2023-03-01T14:22:28.417Z,10.44
2023-03-01T14:25:07.017Z,10.29
2023-03-01T14:27:40.503Z,10.14
2023-03-01T14:30:25.795Z,10.00
2023-03-01T14:33:03.058Z,9.85
2023-03-01T14:35:37.047Z,9.72
2023-03-01T14:38:05.136Z,9.60
2023-03-01T14:40:37.896Z,9.48
2023-03-01T14:43:13.550Z,9.37
2023-03-01T14:45:49.296Z,9.27
2023-03-01T14:48:17.795Z,9.15
2023-03-01T14:50:46.209Z,9.05
2023-03-01T14:53:25.261Z,8.96
2023-03-01T14:56:03.399Z,8.87
2023-03-01T14:58:34.847Z,8.77
2023-03-01T15:01:05.579Z,8.70
2023-03-01T15:03:42.211Z,8.63
2023-03-01T15:06:10.883Z,8.55
2023-03-01T15:08:44.127Z,8.47
2023-03-01T15:11:15.177Z,8.40
2023-03-01T15:13:43.661Z,8.33
2023-03-01T15:16:22.963Z,8.27
2023-03-01T15:19:16.819Z,8.21
2023-03-01T15:21:49.734Z,8.14
2023-03-01T15:24:26.426Z,8.08
2023-03-01T15:27:02.999Z,8.03
2023-03-01T15:29:34.575Z,7.98
2023-03-01T15:32:22.024Z,7.94
2023-03-01T15:34:50.474Z,7.88
2023-03-01T15:37:48.918Z,7.82
2023-03-01T15:40:33.967Z,7.76
2023-03-01T15:43:05.517Z,7.71
2023-03-01T15:45:39.706Z,7.65
2023-03-01T15:48:21.211Z,7.59
2023-03-01T15:50:56.837Z,7.54
2023-03-01T15:53:25.734Z,7.48
2023-03-01T15:55:53.820Z,7.43
2023-03-01T15:58:26.897Z,7.37
2023-03-01T16:01:01.275Z,7.31
2023-03-01T16:03:30.668Z,7.26
2023-03-01T16:05:59.010Z,7.20
2023-03-01T16:08:27.461Z,7.14
2023-03-01T16:10:55.690Z,7.08
2023-03-01T16:13:32.267Z,7.02
2023-03-01T16:16:00.465Z,6.96
2023-03-01T16:18:29.932Z,6.90
2023-03-01T16:20:58.121Z,6.84
2023-03-01T16:23:26.153Z,6.78
2023-03-01T16:25:54.206Z,6.72
2023-03-01T16:28:22.470Z,6.64
2023-03-01T16:30:51.883Z,6.57
2023-03-01T16:33:32.240Z,6.49
2023-03-01T16:36:11.149Z,6.41
2023-03-01T16:38:39.996Z,6.33
2023-03-01T16:41:13.745Z,6.24
2023-03-01T16:43:42.200Z,6.16
2023-03-01T16:46:30.095Z,6.07
2023-03-01T16:48:58.654Z,5.97
2023-03-01T16:51:26.906Z,5.88
2023-03-01T16:53:55.325Z,5.79
2023-03-01T16:56:23.513Z,5.69
2023-03-01T16:58:51.636Z,5.58
2023-03-01T17:01:22.653Z,5.81
2023-03-01T17:03:51.302Z,7.47
2023-03-01T17:06:23.254Z,8.59
2023-03-01T17:08:51.546Z,7.93
2023-03-01T17:11:21.415Z,7.22
2023-03-01T17:13:49.931Z,6.73
2023-03-01T17:16:20.902Z,6.39
2023-03-01T17:18:50.151Z,6.12
2023-03-01T17:21:18.367Z,5.89
2023-03-01T17:23:47.796Z,5.68
2023-03-01T17:26:17.382Z,5.49
2023-03-01T17:28:45.879Z,5.69
2023-03-01T17:31:14.119Z,7.29
2023-03-01T17:33:42.266Z,8.35
2023-03-01T17:36:10.909Z,7.66
2023-03-01T17:38:39.072Z,6.89
2023-03-01T17:41:07.823Z,6.36
2023-03-01T17:43:36.102Z,5.99
2023-03-01T17:46:04.772Z,5.70
2023-03-01T17:48:32.939Z,5.45
2023-03-01T17:51:01.053Z,5.50
2023-03-01T17:53:32.063Z,6.97
2023-03-01T17:56:06.784Z,8.08
2023-03-01T17:58:35.166Z,7.37
2023-03-01T18:01:18.024Z,6.59
2023-03-01T18:03:47.591Z,6.01
2023-03-01T18:06:29.625Z,5.62
2023-03-01T18:09:01.523Z,5.30
2023-03-01T18:11:29.896Z,5.44
2023-03-01T18:14:16.858Z,7.21
2023-03-01T18:16:45.222Z,8.13
2023-03-01T18:19:13.708Z,7.34
2023-03-01T18:21:41.775Z,6.50
2023-03-01T18:24:09.815Z,5.91
2023-03-01T18:26:39.949Z,5.48
2023-03-01T18:29:08.706Z,5.13
2023-03-01T18:31:37.299Z,5.21
2023-03-01T18:34:05.443Z,6.74
2023-03-01T18:36:35.904Z,7.71
2023-03-01T18:39:06.972Z,6.92
2023-03-01T18:41:36.397Z,6.08
2023-03-01T18:44:05.538Z,5.50
2023-03-01T18:46:37.932Z,5.08
2023-03-01T18:49:08.171Z,4.74
2023-03-01T18:51:36.351Z,4.86
2023-03-01T18:54:05.124Z,6.42
2023-03-01T18:56:59.736Z,7.44
2023-03-01T18:59:30.084Z,6.53
2023-03-01T19:01:59.555Z,5.73
2023-03-01T19:04:28.379Z,5.18
2023-03-01T19:06:56.752Z,4.78
2023-03-01T19:09:25.191Z,4.89
2023-03-01T19:12:10.712Z,6.64
2023-03-01T19:14:38.862Z,7.49
2023-03-01T19:17:07.299Z,6.65
2023-03-01T19:19:36.518Z,5.80
2023-03-01T19:22:06.213Z,5.21
2023-03-01T19:24:37.707Z,4.77
2023-03-01T19:27:05.897Z,4.84
2023-03-01T19:29:35.440Z,6.36
2023-03-01T19:32:04.236Z,7.27
2023-03-01T19:40:52.810Z,4.74
2023-03-01T19:43:21.067Z,4.41
2023-03-01T19:45:53.526Z,5.34
2023-03-01T19:48:22.861Z,6.96
2023-03-01T19:50:53.211Z,6.94
2023-03-01T19:53:22.128Z,5.94
2023-03-01T19:55:53.118Z,5.19
2023-03-01T19:58:21.244Z,4.65
2023-03-01T20:00:49.243Z,4.30
2023-03-01T20:03:17.284Z,5.17
2023-03-01T20:05:46.773Z,6.74
2023-03-01T20:08:14.715Z,6.87
2023-03-01T20:10:43.444Z,5.88
2023-03-01T20:13:11.591Z,5.09
2023-03-01T20:15:43.420Z,4.54
2023-03-01T20:18:11.799Z,4.43
2023-03-01T20:20:39.761Z,5.86
2023-03-01T20:23:07.680Z,6.91
2023-03-01T20:25:35.680Z,6.16
2023-03-01T20:28:03.748Z,5.28
2023-03-01T20:30:31.881Z,4.65
2023-03-01T20:32:59.959Z,4.18
2023-03-01T20:35:32.045Z,4.41
2023-03-01T20:38:00.049Z,6.16
2023-03-01T20:40:28.500Z,7.10
2023-03-01T20:42:56.648Z,6.16
2023-03-01T20:45:27.996Z,5.21
2023-03-01T20:47:56.244Z,4.54
2023-03-01T20:50:24.363Z,4.05
2023-03-01T20:52:52.374Z,4.37
2023-03-01T20:55:20.543Z,6.12
2023-03-01T20:57:48.600Z,7.00
2023-03-01T21:00:17.013Z,6.02
2023-03-01T21:02:45.049Z,5.06
2023-03-01T21:05:13.076Z,4.40
2023-03-01T21:07:41.166Z,4.38
2023-03-01T21:10:10.782Z,6.02
2023-03-01T21:12:39.166Z,6.98
2023-03-01T21:15:09.716Z,6.05
2023-03-01T21:17:39.356Z,5.08
2023-03-01T21:20:08.287Z,4.41
2023-03-01T21:22:36.269Z,4.38
2023-03-01T21:25:04.951Z,6.00
2023-03-01T21:27:38.058Z,6.97
2023-03-01T21:30:06.591Z,6.00
2023-03-01T21:32:34.534Z,5.04
2023-03-01T21:35:02.654Z,4.36
2023-03-01T21:37:30.745Z,3.95
2023-03-01T21:39:58.715Z,5.03
2023-03-01T21:42:26.642Z,6.57
2023-03-01T21:44:54.663Z,6.09
2023-03-01T21:47:22.810Z,5.08
2023-03-01T21:49:51.016Z,4.32
2023-03-01T21:52:19.128Z,3.79
2023-03-01T21:54:51.011Z,3.94
2023-03-01T21:57:19.621Z,5.67
2023-03-01T21:59:47.520Z,6.62
2023-03-01T22:02:15.932Z,5.67
2023-03-01T22:04:44.019Z,4.72
2023-03-01T22:07:12.186Z,4.05
2023-03-01T22:09:40.542Z,3.57
2023-03-01T22:12:08.653Z,3.66
2023-03-01T22:14:36.826Z,5.34
2023-03-01T22:17:04.846Z,6.34
2023-03-01T22:19:33.161Z,5.43
2023-03-01T22:22:01.393Z,4.50
2023-03-01T22:24:29.593Z,3.85
2023-03-01T22:26:57.756Z,3.37
2023-03-01T22:29:29.136Z,3.60
2023-03-01T22:31:58.415Z,5.37
2023-03-01T22:34:27.577Z,6.26
2023-03-01T22:36:56.613Z,5.28
2023-03-01T22:39:24.788Z,4.35
2023-03-01T22:42:11.226Z,3.63
2023-03-01T22:44:39.213Z,3.16
2023-03-01T22:47:07.144Z,3.38
2023-03-01T22:49:35.160Z,5.14
2023-03-01T22:52:03.723Z,6.10
2023-03-01T22:54:32.402Z,5.15
2023-03-01T22:57:00.644Z,4.21
2023-03-01T22:59:28.653Z,3.56
2023-03-01T23:01:57.438Z,3.37
2023-03-01T23:04:25.491Z,4.87
2023-03-01T23:06:56.888Z,6.03
2023-03-01T23:09:31.772Z,5.21
2023-03-01T23:12:02.492Z,4.23
2023-03-01T23:14:32.359Z,3.57
2023-03-01T23:17:01.815Z,3.08
2023-03-01T23:19:32.159Z,3.70
2023-03-01T23:22:00.151Z,5.51
2023-03-01T23:24:31.786Z,5.85
2023-03-01T23:27:01.426Z,4.77
2023-03-01T23:29:30.482Z,3.90
2023-03-01T23:31:59.372Z,3.29
2023-03-01T23:34:28.686Z,2.83
2023-03-01T23:36:58.063Z,3.00
2023-03-01T23:39:27.592Z,4.75
2023-03-01T23:41:56.976Z,5.77
2023-03-01T23:44:24.971Z,4.84
2023-03-01T23:46:53.173Z,3.90
2023-03-01T23:49:23.411Z,3.25
2023-03-01T23:51:51.851Z,2.77
2023-03-01T23:54:23.860Z,2.77
2023-03-01T23:56:52.090Z,4.46
2023-03-01T23:59:23.287Z,5.56
